Time;durP1;ratioP1;P1;durP2;ratioP2;P2;SDS_P1;SDS_P2;PMS_P1;PMS_P2;Temp;Humidity;BMP_temperature;BMP_pressure;BME280_temperature;BME280_humidity;BME280_pressure;Samples;Min_cycle;Max_cycle;Signal;HPM_P1;HPM_P2
2021/11/16 00:01:37;;;;;;;39.53;21.38;;;7.70;99.90;;;;;;5018663;28;20067;-85
2021/11/16 00:04:03;;;;;;;36.95;20.25;;;7.60;99.90;;;;;;5037188;28;20025;-84
2021/11/16 00:06:28;;;;;;;34.42;20.52;;;7.60;99.90;;;;;;5019316;28;20044;-84
2021/11/16 00:08:54;;;;;;;42.35;21.92;;;7.60;99.90;;;;;;5036000;28;20033;-84
2021/11/16 00:11:20;;;;;;;39.33;21.95;;;7.60;99.90;;;;;;5018967;28;20120;-84
2021/11/16 00:13:46;;;;;;;38.22;21.67;;;7.60;99.90;;;;;;5034743;28;20029;-85
2021/11/16 00:16:12;;;;;;;37.70;20.58;;;7.60;99.90;;;;;;5051767;28;20033;-84
2021/11/16 00:18:37;;;;;;;37.42;20.25;;;7.60;99.90;;;;;;5036145;28;20041;-85
2021/11/16 00:21:06;;;;;;;38.47;21.08;;;7.60;99.90;;;;;;5022436;28;20025;-84
2021/11/16 00:23:36;;;;;;;40.33;22.25;;;7.60;99.90;;;;;;5057099;28;20096;-83
2021/11/16 00:26:05;;;;;;;40.17;21.58;;;7.60;99.90;;;;;;5040032;28;20029;-85
2021/11/16 00:28:32;;;;;;;39.38;20.67;;;7.60;99.90;;;;;;5056429;28;20031;-84
2021/11/16 00:30:58;;;;;;;41.05;20.65;;;7.60;99.90;;;;;;5022535;28;20128;-84
2021/11/16 00:33:26;;;;;;;40.58;21.02;;;7.60;99.90;;;;;;5038455;28;20422;-84
2021/11/16 00:35:53;;;;;;;41.92;22.38;;;7.60;99.90;;;;;;5056891;28;20056;-84
2021/11/16 00:38:21;;;;;;;39.75;21.15;;;7.60;99.90;;;;;;5056992;28;20039;-84
2021/11/16 00:40:48;;;;;;;38.13;19.73;;;7.60;99.90;;;;;;5064919;28;20025;-83
2021/11/16 00:43:14;;;;;;;38.80;21.33;;;7.60;99.90;;;;;;5047701;28;20059;-84
2021/11/16 00:45:42;;;;;;;40.70;21.92;;;7.60;99.90;;;;;;5026260;28;20059;-84
2021/11/16 00:48:09;;;;;;;38.72;22.00;;;7.50;99.90;;;;;;5038884;28;20040;-84
2021/11/16 00:50:37;;;;;;;39.47;21.77;;;7.60;99.90;;;;;;5056377;28;20075;-84
2021/11/16 00:53:03;;;;;;;42.22;22.02;;;7.60;99.90;;;;;;5038912;28;20056;-84
2021/11/16 00:55:29;;;;;;;37.97;20.92;;;7.50;99.90;;;;;;5038400;28;20029;-84
2021/11/16 00:57:55;;;;;;;39.63;21.35;;;7.50;99.90;;;;;;5038693;28;20083;-84
2021/11/16 01:00:20;;;;;;;38.60;21.63;;;7.50;99.90;;;;;;5022338;28;20037;-84
2021/11/16 01:02:46;;;;;;;36.13;21.15;;;7.50;99.90;;;;;;5038002;28;20120;-84
2021/11/16 01:05:13;;;;;;;37.65;20.25;;;7.50;99.90;;;;;;5038099;28;20029;-85
2021/11/16 01:07:41;;;;;;;38.00;21.08;;;7.50;99.90;;;;;;5037695;28;20035;-84
2021/11/16 01:10:11;;;;;;;38.30;20.48;;;7.50;99.90;;;;;;5021746;28;20466;-84
2021/11/16 01:12:41;;;;;;;39.15;19.85;;;7.50;99.90;;;;;;5020904;28;20120;-85
2021/11/16 01:15:08;;;;;;;42.90;21.13;;;7.50;99.90;;;;;;5037670;28;20107;-85
2021/11/16 01:17:34;;;;;;;38.75;20.48;;;7.50;99.90;;;;;;5021365;28;20025;-85
2021/11/16 01:20:04;;;;;;;41.75;22.48;;;7.50;99.90;;;;;;5036988;28;20482;-85
2021/11/16 01:22:30;;;;;;;42.10;21.50;;;7.50;99.90;;;;;;5037475;28;20024;-87
2021/11/16 01:24:56;;;;;;;39.40;22.08;;;7.50;99.90;;;;;;5055297;28;20037;-86
2021/11/16 01:27:25;;;;;;;44.22;22.38;;;7.50;99.90;;;;;;5038059;28;20096;-87
2021/11/16 01:29:50;;;;;;;44.95;22.48;;;7.50;99.90;;;;;;5037945;28;20032;-85
2021/11/16 01:32:36;;;;;;;43.90;22.15;;;7.50;99.90;;;;;;5036955;28;20029;-90
2021/11/16 01:35:03;;;;;;;38.65;20.25;;;7.50;99.90;;;;;;5040167;28;20539;-85
2021/11/16 01:37:29;;;;;;;41.35;21.77;;;7.50;99.90;;;;;;5020886;28;20425;-84
2021/11/16 01:39:55;;;;;;;40.47;22.05;;;7.50;99.90;;;;;;5037487;28;20068;-83
2021/11/16 01:42:22;;;;;;;40.47;21.30;;;7.50;99.90;;;;;;5055199;28;20024;-84
2021/11/16 01:44:50;;;;;;;42.08;22.77;;;7.50;99.90;;;;;;5038833;28;20043;-85
2021/11/16 01:47:17;;;;;;;40.95;21.92;;;7.50;99.90;;;;;;5037299;28;20051;-85
2021/11/16 01:49:43;;;;;;;44.33;22.35;;;7.50;99.90;;;;;;5037175;28;20458;-84
2021/11/16 01:52:09;;;;;;;40.67;21.67;;;7.50;99.90;;;;;;5037533;28;20478;-85
2021/11/16 01:54:36;;;;;;;39.80;22.02;;;7.50;99.90;;;;;;5037409;28;20025;-87
2021/11/16 01:57:02;;;;;;;43.42;22.60;;;7.50;99.90;;;;;;5054689;28;20108;-85
2021/11/16 01:59:28;;;;;;;41.80;22.90;;;7.50;99.90;;;;;;5020335;28;20040;-85
2021/11/16 02:01:55;;;;;;;41.47;22.27;;;7.50;99.90;;;;;;5020835;28;20033;-84
2021/11/16 02:04:22;;;;;;;40.53;21.17;;;7.40;99.90;;;;;;5020243;28;20059;-88
2021/11/16 02:06:48;;;;;;;41.17;21.92;;;7.50;99.90;;;;;;5036812;28;20476;-84
2021/11/16 02:09:16;;;;;;;40.13;21.85;;;7.50;99.90;;;;;;5036233;28;20040;-85
2021/11/16 02:11:42;;;;;;;40.72;21.42;;;7.50;99.90;;;;;;5036740;28;20024;-84
2021/11/16 02:14:12;;;;;;;41.40;22.85;;;7.50;99.90;;;;;;5020496;28;20025;-84
2021/11/16 02:16:38;;;;;;;39.45;21.08;;;7.50;99.90;;;;;;5036237;28;20056;-84
2021/11/16 02:19:08;;;;;;;39.15;21.45;;;7.50;99.90;;;;;;5036239;28;20103;-84
2021/11/16 02:21:34;;;;;;;41.25;22.05;;;7.50;99.90;;;;;;5052330;28;20362;-85
2021/11/16 02:24:00;;;;;;;42.67;21.83;;;7.50;99.90;;;;;;5036406;28;20128;-85
2021/11/16 02:26:26;;;;;;;42.83;22.35;;;7.50;99.90;;;;;;5019842;28;20036;-85
2021/11/16 02:28:53;;;;;;;39.03;20.55;;;7.50;99.90;;;;;;5020233;28;20025;-84
2021/11/16 02:31:19;;;;;;;41.13;21.80;;;7.50;99.90;;;;;;5036599;28;20439;-85
2021/11/16 02:33:46;;;;;;;39.63;21.52;;;7.50;99.90;;;;;;5019815;28;20034;-85
2021/11/16 02:36:12;;;;;;;40.83;21.35;;;7.50;99.90;;;;;;5054063;28;20045;-85
2021/11/16 02:38:38;;;;;;;41.83;21.17;;;7.50;99.90;;;;;;5020721;28;20033;-84
2021/11/16 02:41:05;;;;;;;40.38;21.90;;;7.50;99.90;;;;;;5052243;28;20059;-85
2021/11/16 02:43:33;;;;;;;39.28;20.63;;;7.50;99.90;;;;;;5018764;28;20025;-85
2021/11/16 02:46:01;;;;;;;41.63;21.40;;;7.50;99.90;;;;;;5036570;28;20469;-85
2021/11/16 02:48:27;;;;;;;37.47;20.50;;;7.50;99.90;;;;;;5036447;28;20025;-86
2021/11/16 02:51:00;;;;;;;38.67;21.20;;;7.50;99.90;;;;;;5036409;28;20036;-85
2021/11/16 02:53:25;;;;;;;36.75;19.73;;;7.50;99.90;;;;;;5035776;28;20031;-89
2021/11/16 02:55:52;;;;;;;40.03;21.23;;;7.50;99.90;;;;;;5054062;28;20098;-85
2021/11/16 02:58:20;;;;;;;36.00;19.55;;;7.50;99.90;;;;;;5035918;28;20033;-85
2021/11/16 03:00:51;;;;;;;39.95;21.45;;;7.50;99.90;;;;;;5019681;28;20035;-85
2021/11/16 03:03:17;;;;;;;;;;;7.50;99.90;;;;;;5053891;28;20013;-85
2021/11/16 03:05:43;;;;;;;36.42;19.50;;;7.50;99.90;;;;;;5034819;28;19905;-85
2021/11/16 03:08:21;;;;;;;43.60;21.20;;;7.50;99.90;;;;;;5053369;28;20083;-84
2021/11/16 03:10:49;;;;;;;38.08;20.15;;;7.50;99.90;;;;;;5035628;28;20025;-85
2021/11/16 03:13:15;;;;;;;42.85;22.92;;;7.40;99.90;;;;;;5036000;28;20039;-85
2021/11/16 03:15:41;;;;;;;42.22;22.38;;;7.50;99.90;;;;;;5003211;28;20071;-85
2021/11/16 03:18:08;;;;;;;39.20;21.08;;;7.40;99.90;;;;;;5019641;28;20127;-85
2021/11/16 03:20:33;;;;;;;37.90;22.00;;;7.40;99.90;;;;;;5053383;28;20457;-85
2021/11/16 03:23:12;;;;;;;41.28;22.35;;;7.40;99.90;;;;;;5019309;28;20036;-85
2021/11/16 03:25:45;;;;;;;41.45;21.98;;;7.40;99.90;;;;;;5020626;28;20021;-86
2021/11/16 03:28:12;;;;;;;39.05;21.85;;;7.40;99.90;;;;;;5020533;28;20040;-85
2021/11/16 03:30:38;;;;;;;43.38;24.02;;;7.40;99.90;;;;;;5019324;28;20036;-85
2021/11/16 03:33:05;;;;;;;42.60;22.98;;;7.40;99.90;;;;;;5052259;28;20057;-86
2021/11/16 03:35:32;;;;;;;42.90;22.23;;;7.30;99.90;;;;;;5023590;28;20073;-85
2021/11/16 03:37:59;;;;;;;40.47;21.38;;;7.30;99.90;;;;;;4998138;28;20037;-87
2021/11/16 03:40:27;;;;;;;40.03;21.23;;;7.40;99.90;;;;;;4997852;28;20056;-85
2021/11/16 03:42:53;;;;;;;38.80;21.60;;;7.30;99.90;;;;;;5013498;28;20172;-85
2021/11/16 03:45:23;;;;;;;38.95;20.35;;;7.30;99.90;;;;;;5014013;28;20036;-86
2021/11/16 03:47:50;;;;;;;39.57;20.50;;;7.40;99.90;;;;;;5014749;28;20467;-86
2021/11/16 03:50:19;;;;;;;40.70;20.73;;;7.40;99.90;;;;;;5015765;28;20500;-87
2021/11/16 03:52:50;;;;;;;40.40;21.00;;;7.40;99.90;;;;;;5016864;28;20029;-84
2021/11/16 03:55:16;;;;;;;38.60;20.83;;;7.40;99.90;;;;;;5018555;28;20022;-84
2021/11/16 03:57:42;;;;;;;40.45;21.45;;;7.40;99.90;;;;;;5018488;28;20134;-84
2021/11/16 04:00:20;;;;;;;43.58;21.33;;;7.40;99.90;;;;;;5003250;28;20026;-84
2021/11/16 04:02:46;;;;;;;39.15;20.80;;;7.40;99.90;;;;;;5019561;28;20087;-84
2021/11/16 04:05:12;;;;;;;38.35;20.95;;;7.40;99.90;;;;;;5003236;28;20424;-84
2021/11/16 04:07:40;;;;;;;34.45;19.88;;;7.40;99.90;;;;;;5002943;28;20036;-84
2021/11/16 04:10:13;;;;;;;38.97;21.13;;;7.40;99.90;;;;;;5019221;28;20367;-84
2021/11/16 04:12:43;;;;;;;37.20;20.73;;;7.40;99.90;;;;;;5003494;28;20030;-85
2021/11/16 04:15:10;;;;;;;41.25;21.67;;;7.40;99.90;;;;;;5002860;28;20121;-84
2021/11/16 04:17:36;;;;;;;41.03;21.30;;;7.40;99.90;;;;;;5003112;28;20033;-84
2021/11/16 04:20:03;;;;;;;37.40;20.27;;;7.40;99.90;;;;;;5019049;28;20042;-84
2021/11/16 04:22:29;;;;;;;37.88;20.38;;;7.40;99.90;;;;;;5003440;28;20355;-84
2021/11/16 04:24:55;;;;;;;42.92;21.90;;;7.40;99.90;;;;;;5002908;28;20032;-84
2021/11/16 04:27:21;;;;;;;39.35;21.60;;;7.40;99.90;;;;;;5019275;28;20080;-84
2021/11/16 04:29:46;;;;;;;39.85;21.38;;;7.40;99.90;;;;;;5003066;28;20029;-84
2021/11/16 04:32:12;;;;;;;40.90;21.92;;;7.40;99.90;;;;;;5019445;28;20030;-84
2021/11/16 04:34:38;;;;;;;38.00;21.02;;;7.40;99.90;;;;;;5022911;28;20057;-85
2021/11/16 04:37:04;;;;;;;43.17;22.40;;;7.50;99.90;;;;;;5038926;28;20040;-84
2021/11/16 04:39:29;;;;;;;40.15;21.63;;;7.50;99.90;;;;;;5039037;28;20481;-84
2021/11/16 04:41:55;;;;;;;43.03;21.90;;;7.50;99.90;;;;;;5038151;28;20044;-84
2021/11/16 04:44:21;;;;;;;43.58;21.67;;;7.40;99.90;;;;;;5038553;28;20120;-84
2021/11/16 04:46:47;;;;;;;40.50;21.38;;;7.50;99.90;;;;;;5039214;28;20059;-84
2021/11/16 04:49:28;;;;;;;38.80;21.48;;;7.50;99.90;;;;;;5040328;28;20029;-84
2021/11/16 04:52:16;;;;;;;48.40;21.92;;;7.50;99.90;;;;;;5029893;28;20079;-83
2021/11/16 05:02:52;;;;;;;40.90;21.42;;;7.50;99.90;;;;;;5040185;28;20029;-84
2021/11/16 05:05:20;;;;;;;38.75;21.25;;;7.50;99.90;;;;;;5021796;28;20029;-84
2021/11/16 05:08:11;;;;;;;38.78;21.10;;;7.40;99.90;;;;;;5038579;28;20083;-84
2021/11/16 05:10:37;;;;;;;;;;;7.40;99.90;;;;;;5039005;28;20017;-84
2021/11/16 05:13:03;;;;;;;38.58;19.80;;;7.50;99.90;;;;;;5057132;28;19905;-84
2021/11/16 05:15:28;;;;;;;45.55;22.15;;;7.40;99.90;;;;;;5040095;28;20064;-84
2021/11/16 05:17:55;;;;;;;40.97;21.92;;;7.40;99.90;;;;;;5023662;28;20087;-84
2021/11/16 05:20:21;;;;;;;44.25;21.15;;;7.40;99.90;;;;;;5023941;28;20057;-84
2021/11/16 05:23:07;;;;;;;44.08;22.00;;;7.50;99.90;;;;;;5056796;28;20469;-84
2021/11/16 05:25:34;;;;;;;48.08;23.83;;;7.40;99.90;;;;;;5039754;28;20025;-84
2021/11/16 05:28:02;;;;;;;44.70;22.58;;;7.40;99.90;;;;;;5023780;28;20033;-84
2021/11/16 05:30:29;;;;;;;41.13;21.38;;;7.40;99.90;;;;;;5022154;28;20036;-85
2021/11/16 05:32:56;;;;;;;43.30;22.48;;;7.50;99.90;;;;;;5021511;28;20568;-84
2021/11/16 05:35:22;;;;;;;39.20;20.70;;;7.40;99.90;;;;;;5037850;28;20060;-84
2021/11/16 05:37:48;;;;;;;39.95;20.38;;;7.50;99.90;;;;;;5038399;28;20025;-85
2021/11/16 05:40:14;;;;;;;39.38;20.85;;;7.40;99.90;;;;;;5038703;28;20029;-85
2021/11/16 05:42:40;;;;;;;43.88;22.17;;;7.40;99.90;;;;;;5040042;28;20021;-87
2021/11/16 05:45:06;;;;;;;40.28;20.33;;;7.50;99.90;;;;;;5058504;28;20039;-86
2021/11/16 05:47:32;;;;;;;41.83;22.17;;;7.50;99.90;;;;;;5040227;28;20427;-86
2021/11/16 05:49:59;;;;;;;47.13;22.15;;;7.40;99.90;;;;;;5040142;28;20025;-85
2021/11/16 05:52:24;;;;;;;44.17;22.42;;;7.40;99.90;;;;;;5039198;28;20033;-84
2021/11/16 05:54:52;;;;;;;45.92;22.73;;;7.40;99.90;;;;;;5038332;28;20040;-83
2021/11/16 05:57:18;;;;;;;44.38;23.10;;;7.40;99.90;;;;;;5039152;28;20043;-84
2021/11/16 05:59:44;;;;;;;47.45;21.85;;;7.40;99.90;;;;;;5023223;28;20376;-89
2021/11/16 06:02:11;;;;;;;45.38;22.45;;;7.40;99.90;;;;;;5025493;28;20035;-85
2021/11/16 06:04:38;;;;;;;48.03;22.55;;;7.50;99.90;;;;;;5045840;28;20036;-85
2021/11/16 06:07:05;;;;;;;50.05;23.50;;;7.40;99.90;;;;;;5056769;28;20146;-85
2021/11/16 06:09:31;;;;;;;52.30;25.52;;;7.40;99.90;;;;;;5038606;28;20016;-89
2021/11/16 06:12:02;;;;;;;47.30;23.38;;;7.40;99.90;;;;;;5045884;28;20044;-86
2021/11/16 06:14:29;;;;;;;50.15;24.52;;;7.40;99.90;;;;;;5074944;28;20047;-86
2021/11/16 06:16:55;;;;;;;50.28;24.27;;;7.40;99.90;;;;;;5066702;28;20040;-88
2021/11/16 06:19:24;;;;;;;47.63;21.67;;;7.40;99.90;;;;;;5073366;28;20025;-86
2021/11/16 06:21:51;;;;;;;50.50;23.30;;;7.40;99.90;;;;;;5067511;28;20117;-86
2021/11/16 06:24:17;;;;;;;45.13;23.00;;;7.40;99.90;;;;;;5050180;28;20041;-87
2021/11/16 06:26:42;;;;;;;48.28;22.85;;;7.40;99.90;;;;;;5051051;28;20025;-85
2021/11/16 06:29:08;;;;;;;52.10;23.55;;;7.40;99.90;;;;;;5053187;28;20033;-85
2021/11/16 06:31:34;;;;;;;50.90;22.58;;;7.40;99.90;;;;;;5037759;28;20473;-84
2021/11/16 06:34:02;;;;;;;49.15;22.80;;;7.40;99.90;;;;;;5052457;28;20021;-84
2021/11/16 06:36:35;;;;;;;49.58;22.13;;;7.40;99.90;;;;;;5040409;28;20053;-85
2021/11/16 06:39:05;;;;;;;51.03;23.90;;;7.40;99.90;;;;;;5056306;28;20028;-86
2021/11/16 06:41:31;;;;;;;51.30;22.83;;;7.40;99.90;;;;;;5039635;28;20028;-86
2021/11/16 06:43:58;;;;;;;48.17;21.33;;;7.40;99.90;;;;;;5039759;28;20029;-85
2021/11/16 06:46:23;;;;;;;45.88;21.10;;;7.40;99.90;;;;;;5045303;28;20032;-87
2021/11/16 06:48:49;;;;;;;48.55;23.98;;;7.40;99.90;;;;;;5026518;28;20025;-91
2021/11/16 06:51:15;;;;;;;48.38;22.70;;;7.40;99.90;;;;;;5023291;28;20056;-85
2021/11/16 06:53:41;;;;;;;46.92;23.10;;;7.40;99.90;;;;;;5038565;28;20100;-86
2021/11/16 06:56:07;;;;;;;50.38;22.52;;;7.40;99.90;;;;;;5024033;28;20036;-88
2021/11/16 06:58:35;;;;;;;45.08;21.98;;;7.40;99.90;;;;;;5061224;28;20017;-87
2021/11/16 07:01:03;;;;;;;43.78;21.77;;;7.40;99.90;;;;;;5064381;28;20041;-86
2021/11/16 07:03:28;;;;;;;49.38;23.58;;;7.40;99.90;;;;;;5048282;28;20089;-84
2021/11/16 07:06:01;;;;;;;50.95;23.23;;;7.40;99.90;;;;;;5031937;28;20025;-85
2021/11/16 07:08:32;;;;;;;48.15;22.83;;;7.40;99.90;;;;;;5053637;28;20032;-87
2021/11/16 07:11:02;;;;;;;48.92;22.73;;;7.40;99.90;;;;;;5057742;28;20627;-88
2021/11/16 07:13:28;;;;;;;50.57;23.13;;;7.40;99.90;;;;;;5074792;28;20052;-86
2021/11/16 07:15:54;;;;;;;48.88;22.67;;;7.40;99.90;;;;;;5037572;28;20100;-89
2021/11/16 07:18:19;;;;;;;51.33;23.65;;;7.40;99.90;;;;;;5070133;28;20032;-86
2021/11/16 07:20:46;;;;;;;49.95;23.48;;;7.40;99.90;;;;;;5035269;28;20025;-85
2021/11/16 07:23:12;;;;;;;44.90;23.10;;;7.40;99.90;;;;;;5064503;28;20033;-85
2021/11/16 07:25:38;;;;;;;47.15;21.85;;;7.40;99.90;;;;;;5041181;28;20373;-85
2021/11/16 07:28:04;;;;;;;48.05;22.10;;;7.40;99.90;;;;;;5021709;28;20029;-85
2021/11/16 07:30:35;;;;;;;50.08;23.20;;;7.30;99.90;;;;;;5060393;28;20051;-85
2021/11/16 07:33:02;;;;;;;;;;;7.40;99.90;;;;;;5046018;28;20037;-85
2021/11/16 07:35:34;;;;;;;44.45;21.17;;;7.30;99.90;;;;;;5049355;28;19924;-84
2021/11/16 07:38:03;;;;;;;50.60;22.73;;;7.30;99.90;;;;;;5021866;28;20071;-85
2021/11/16 07:40:30;;;;;;;48.03;22.65;;;7.30;99.90;;;;;;5020999;28;20026;-85
2021/11/16 07:43:07;;;;;;;47.88;22.35;;;7.30;99.90;;;;;;5005192;28;20075;-85
2021/11/16 07:45:48;;;;;;;46.13;20.90;;;7.30;99.90;;;;;;5020875;28;20060;-85
2021/11/16 07:48:25;;;;;;;48.00;22.38;;;7.30;99.90;;;;;;5020774;28;20064;-85
2021/11/16 07:51:05;;;;;;;53.65;22.55;;;7.30;99.90;;;;;;5020105;28;20104;-85
2021/11/16 07:53:33;;;;;;;45.45;21.17;;;7.30;99.90;;;;;;5019742;28;20534;-85
2021/11/16 07:56:02;;;;;;;47.30;22.10;;;7.30;99.90;;;;;;5035813;28;20369;-85
2021/11/16 07:58:34;;;;;;;48.15;22.05;;;7.30;99.90;;;;;;5019405;28;20022;-85
2021/11/16 08:01:06;;;;;;;46.47;20.40;;;7.30;99.90;;;;;;5018498;28;20021;-86
2021/11/16 08:03:42;;;;;;;45.83;20.38;;;7.30;99.90;;;;;;5020375;28;20053;-85
2021/11/16 08:06:13;;;;;;;44.50;19.58;;;7.30;99.90;;;;;;5003998;28;20029;-85
2021/11/16 08:08:53;;;;;;;42.33;19.15;;;7.30;99.90;;;;;;5036273;28;20025;-85
2021/11/16 08:11:37;;;;;;;43.08;19.83;;;7.30;99.90;;;;;;5021051;28;20113;-85
2021/11/16 08:14:13;;;;;;;44.30;18.92;;;7.30;99.90;;;;;;5018846;28;20025;-85
2021/11/16 08:16:50;;;;;;;42.25;19.13;;;7.30;99.90;;;;;;5018828;28;20187;-85
2021/11/16 08:19:23;;;;;;;45.33;19.38;;;7.30;99.90;;;;;;5036339;28;20022;-85
2021/11/16 08:21:55;;;;;;;43.55;19.27;;;7.30;99.90;;;;;;5018045;28;20351;-85
2021/11/16 08:24:23;;;;;;;42.30;18.20;;;7.30;99.90;;;;;;5018938;28;20022;-85
2021/11/16 08:26:50;;;;;;;43.90;19.35;;;7.30;99.90;;;;;;5034847;28;20588;-85
2021/11/16 08:29:43;;;;;;;43.22;18.88;;;7.30;99.90;;;;;;5002203;28;20033;-86
2021/11/16 08:32:22;;;;;;;41.72;18.10;;;7.30;99.90;;;;;;5036297;28;20025;-85
2021/11/16 08:34:52;;;;;;;48.45;19.80;;;7.30;99.90;;;;;;5038839;28;20021;-85
2021/11/16 08:37:20;;;;;;;45.95;18.05;;;7.30;99.90;;;;;;5037873;28;20470;-85
2021/11/16 08:39:54;;;;;;;43.03;20.35;;;7.30;99.90;;;;;;5056052;28;20029;-85
2021/11/16 08:42:25;;;;;;;50.95;21.00;;;7.30;99.90;;;;;;5038394;28;20017;-85
2021/11/16 08:45:12;;;;;;;;;;;7.30;99.90;;;;;;5057361;28;20108;-85
2021/11/16 08:47:45;;;;;;;45.03;19.92;;;7.30;99.90;;;;;;5055971;28;19955;-85
2021/11/16 08:50:28;;;;;;;50.10;20.95;;;7.30;99.90;;;;;;5058543;28;20103;-85
2021/11/16 08:52:55;;;;;;;47.05;20.58;;;7.30;99.90;;;;;;5058800;28;20052;-85
2021/11/16 08:55:26;;;;;;;44.22;20.63;;;7.30;99.90;;;;;;5039624;28;20423;-85
2021/11/16 08:57:52;;;;;;;47.17;20.17;;;7.30;99.90;;;;;;5006996;28;20048;-86
2021/11/16 09:00:28;;;;;;;48.80;21.63;;;7.30;99.90;;;;;;5038215;28;20116;-85
2021/11/16 09:03:13;;;;;;;45.65;20.00;;;7.30;99.90;;;;;;5038423;28;20423;-85
2021/11/16 09:05:50;;;;;;;48.40;20.08;;;7.30;99.90;;;;;;5056049;28;20021;-85
2021/11/16 09:08:22;;;;;;;51.40;21.00;;;7.30;99.90;;;;;;5038321;28;20028;-86
2021/11/16 09:10:50;;;;;;;44.83;21.23;;;7.30;99.90;;;;;;5038165;28;20115;-86
2021/11/16 09:13:19;;;;;;;47.00;21.27;;;7.40;99.90;;;;;;5037190;28;20059;-86
2021/11/16 09:15:53;;;;;;;51.08;22.27;;;7.30;99.90;;;;;;5038132;28;20500;-85
2021/11/16 09:18:28;;;;;;;45.28;20.00;;;7.30;99.90;;;;;;5054029;28;20095;-85
2021/11/16 09:21:04;;;;;;;43.10;18.67;;;7.30;99.90;;;;;;5037991;28;20044;-85
2021/11/16 09:23:36;;;;;;;35.53;18.05;;;7.30;99.90;;;;;;5037814;28;20079;-85
2021/11/16 09:26:10;;;;;;;42.75;18.13;;;7.30;99.90;;;;;;5037544;28;20025;-85
2021/11/16 09:28:43;;;;;;;40.92;19.05;;;7.30;99.90;;;;;;5037517;28;20017;-86
2021/11/16 09:31:31;;;;;;;42.72;19.05;;;7.30;99.90;;;;;;5038812;28;20046;-86
2021/11/16 09:34:05;;;;;;;39.75;17.65;;;7.30;99.90;;;;;;5037837;28;20017;-86
2021/11/16 09:36:36;;;;;;;41.85;19.42;;;7.30;99.90;;;;;;5036436;28;20041;-86
2021/11/16 09:39:09;;;;;;;;;;;7.40;99.90;;;;;;5038064;28;20025;-85
2021/11/16 09:41:45;;;;;;;37.50;16.42;;;7.30;99.90;;;;;;5054480;28;19909;-85
2021/11/16 09:44:23;;;;;;;38.63;16.80;;;7.30;99.90;;;;;;5055289;28;20029;-86
2021/11/16 09:47:18;;;;;;;36.67;16.48;;;7.30;99.90;;;;;;5037256;28;20116;-86
2021/11/16 09:49:44;;;;;;;40.10;16.63;;;7.30;99.90;;;;;;5055123;28;20486;-86
2021/11/16 09:52:13;;;;;;;35.90;16.05;;;7.40;99.90;;;;;;5036316;28;20107;-86
2021/11/16 09:54:57;;;;;;;33.92;16.13;;;7.40;99.90;;;;;;5036547;28;20028;-86
2021/11/16 09:57:42;;;;;;;36.92;15.48;;;7.40;99.90;;;;;;5054685;28;20033;-86
2021/11/16 10:00:13;;;;;;;33.58;14.93;;;7.40;99.90;;;;;;5036983;28;20028;-90
2021/11/16 10:02:45;;;;;;;28.45;13.90;;;7.40;99.90;;;;;;5037250;28;20124;-86
2021/11/16 10:05:21;;;;;;;33.22;13.93;;;7.40;99.90;;;;;;5054660;28;20055;-85
2021/11/16 10:07:48;;;;;;;33.17;14.98;;;7.40;99.90;;;;;;5036497;28;20029;-85
2021/11/16 10:10:15;;;;;;;35.50;15.52;;;7.40;99.90;;;;;;5019818;28;20017;-86
2021/11/16 10:12:49;;;;;;;36.28;15.98;;;7.40;99.90;;;;;;5020156;28;20035;-86
2021/11/16 10:15:17;;;;;;;39.03;17.52;;;7.40;99.90;;;;;;5037111;28;20021;-86
2021/11/16 10:17:45;;;;;;;36.30;16.55;;;7.40;99.90;;;;;;5036063;28;20036;-86
2021/11/16 10:20:13;;;;;;;38.95;17.55;;;7.40;99.90;;;;;;5035840;28;20021;-87
2021/11/16 10:22:47;;;;;;;35.25;16.00;;;7.40;99.90;;;;;;5054113;28;20424;-86
2021/11/16 10:25:16;;;;;;;32.00;15.32;;;7.40;99.90;;;;;;5036478;28;20021;-86
2021/11/16 10:27:45;;;;;;;34.95;16.27;;;7.40;99.90;;;;;;5054158;28;20029;-86
2021/11/16 10:30:10;;;;;;;31.25;15.30;;;7.40;99.90;;;;;;5036533;28;20032;-85
2021/11/16 10:32:37;;;;;;;34.00;15.35;;;7.40;99.90;;;;;;5035875;28;20017;-86
2021/11/16 10:35:12;;;;;;;34.45;14.38;;;7.40;99.90;;;;;;5035633;28;20132;-85
2021/11/16 10:37:46;;;;;;;33.42;15.25;;;7.40;99.90;;;;;;5036358;28;20377;-85
2021/11/16 10:40:13;;;;;;;30.58;14.75;;;7.30;99.90;;;;;;5053765;28;20017;-91
2021/11/16 10:42:45;;;;;;;35.92;15.32;;;7.30;99.90;;;;;;5019934;28;20492;-85
2021/11/16 10:45:16;;;;;;;27.65;12.95;;;7.30;99.90;;;;;;5035857;28;20135;-85
2021/11/16 10:47:45;;;;;;;35.20;15.50;;;7.40;99.90;;;;;;5035405;28;20025;-85
2021/11/16 10:50:13;;;;;;;32.65;14.35;;;7.40;99.90;;;;;;5035664;28;20027;-85
2021/11/16 10:52:39;;;;;;;33.30;14.93;;;7.40;99.90;;;;;;5035444;28;20473;-85
2021/11/16 10:55:07;;;;;;;33.28;15.30;;;7.40;99.90;;;;;;5036087;28;20155;-85
2021/11/16 10:57:56;;;;;;;32.35;14.38;;;7.40;99.90;;;;;;5035859;28;20051;-85
2021/11/16 11:00:45;;;;;;;31.27;14.73;;;7.40;99.90;;;;;;5053426;28;20414;-85
2021/11/16 11:03:17;;;;;;;34.72;16.10;;;7.40;99.90;;;;;;5052818;28;20032;-85
2021/11/16 11:05:45;;;;;;;33.58;14.52;;;7.40;99.90;;;;;;5035867;28;20021;-85
2021/11/16 11:08:11;;;;;;;29.77;14.05;;;7.40;99.90;;;;;;5035319;28;20029;-85
2021/11/16 11:10:47;;;;;;;29.13;13.55;;;7.40;99.90;;;;;;5022224;28;20025;-85
2021/11/16 11:13:23;;;;;;;26.00;12.70;;;7.40;99.90;;;;;;5035905;28;20025;-85
2021/11/16 11:15:50;;;;;;;25.70;12.43;;;7.40;99.90;;;;;;5053069;28;20025;-85
2021/11/16 11:18:33;;;;;;;25.35;12.50;;;7.40;99.90;;;;;;5053398;28;20040;-92
2021/11/16 11:21:01;;;;;;;23.58;12.02;;;7.40;99.90;;;;;;5053598;28;20096;-85
2021/11/16 11:23:46;;;;;;;23.58;11.77;;;7.40;99.90;;;;;;5035311;28;20025;-85
2021/11/16 11:31:45;;;;;;;27.75;13.85;;;7.40;99.90;;;;;;5052935;28;20480;-84
2021/11/16 11:34:12;;;;;;;28.60;14.07;;;7.30;99.90;;;;;;5035630;28;20022;-85
2021/11/16 11:36:38;;;;;;;25.52;13.20;;;7.30;99.90;;;;;;5051662;28;20482;-85
2021/11/16 11:39:23;;;;;;;31.52;15.20;;;7.30;99.90;;;;;;5035424;28;20021;-85
2021/11/16 11:41:51;;;;;;;31.85;15.18;;;7.30;99.90;;;;;;5053531;28;20473;-84
2021/11/16 11:44:19;;;;;;;31.55;15.43;;;7.30;99.90;;;;;;5035359;28;20029;-85
2021/11/16 11:46:51;;;;;;;30.48;15.32;;;7.30;99.90;;;;;;5053124;28;20021;-85
2021/11/16 11:49:18;;;;;;;29.52;14.38;;;7.30;99.90;;;;;;5052498;28;20025;-85
2021/11/16 11:51:44;;;;;;;26.30;13.95;;;7.30;99.90;;;;;;5052520;28;20067;-84
2021/11/16 11:54:11;;;;;;;29.67;13.82;;;7.30;99.90;;;;;;5018679;28;20025;-84
2021/11/16 11:56:37;;;;;;;26.75;13.65;;;7.30;99.90;;;;;;5018548;28;20065;-84
2021/11/16 11:59:02;;;;;;;30.52;14.40;;;7.40;99.90;;;;;;5035918;28;20060;-84
2021/11/16 12:01:30;;;;;;;28.63;12.80;;;7.30;99.90;;;;;;5018779;28;20371;-84
2021/11/16 12:03:57;;;;;;;26.40;12.93;;;7.40;99.90;;;;;;5051787;28;20027;-84
2021/11/16 12:06:24;;;;;;;27.23;13.18;;;7.40;99.90;;;;;;5051809;28;20040;-85
2021/11/16 12:08:55;;;;;;;27.60;13.63;;;7.50;99.90;;;;;;5019213;28;20428;-86
2021/11/16 12:11:21;;;;;;;30.98;13.57;;;7.50;99.90;;;;;;5035182;28;20450;-89
2021/11/16 12:13:49;;;;;;;31.50;15.15;;;7.50;99.90;;;;;;5034813;28;20025;-85
2021/11/16 12:16:26;;;;;;;30.05;13.82;;;7.50;99.90;;;;;;5037633;28;20036;-85
2021/11/16 12:19:04;;;;;;;33.35;14.27;;;7.50;99.90;;;;;;5057019;28;20071;-85
2021/11/16 12:21:36;;;;;;;33.33;14.95;;;7.50;99.90;;;;;;5038540;28;20071;-85
2021/11/16 12:24:08;;;;;;;30.85;14.07;;;7.50;99.90;;;;;;5056265;28;20028;-85
2021/11/16 12:26:53;;;;;;;33.55;15.82;;;7.50;99.90;;;;;;5038222;28;20029;-85
2021/11/16 12:29:22;;;;;;;32.78;14.88;;;7.50;99.90;;;;;;5038313;28;20025;-85
2021/11/16 12:31:50;;;;;;;29.50;14.23;;;7.50;99.90;;;;;;5038386;28;20108;-85
2021/11/16 12:34:34;;;;;;;32.50;14.20;;;7.50;99.90;;;;;;5056463;28;20036;-85
2021/11/16 12:37:01;;;;;;;28.35;14.02;;;7.40;99.90;;;;;;5038486;28;20055;-85
2021/11/16 12:39:27;;;;;;;35.40;15.43;;;7.50;99.90;;;;;;5037975;28;20025;-85
2021/11/16 12:42:08;;;;;;;27.92;13.90;;;7.50;99.90;;;;;;5038386;28;20036;-85
2021/11/16 12:44:33;;;;;;;28.70;14.25;;;7.50;99.90;;;;;;5039981;28;20116;-85
2021/11/16 12:47:09;;;;;;;32.70;15.00;;;7.50;99.90;;;;;;5057682;28;20068;-85
2021/11/16 12:49:40;;;;;;;34.75;15.95;;;7.50;99.90;;;;;;5038731;28;20135;-85
2021/11/16 12:52:10;;;;;;;30.30;14.38;;;7.50;99.90;;;;;;5037574;28;20025;-85
2021/11/16 12:54:37;;;;;;;31.15;14.30;;;7.50;99.90;;;;;;5038113;28;20490;-85
2021/11/16 12:57:12;;;;;;;32.47;15.10;;;7.50;99.90;;;;;;5037692;28;20488;-86
2021/11/16 12:59:44;;;;;;;30.95;14.50;;;7.50;99.90;;;;;;5053810;28;20032;-85
2021/11/16 13:02:36;;;;;;;31.42;15.35;;;7.50;99.90;;;;;;5037920;28;20029;-85
2021/11/16 13:05:07;;;;;;;34.10;15.30;;;7.50;99.90;;;;;;5038056;28;20469;-85